createdAt,value
2023-02-27T05:19:33.805Z,100548.06
2023-02-27T05:22:49.236Z,100548.06
2023-02-27T05:26:04.219Z,100558.81
2023-02-27T05:29:21.267Z,100560.31
2023-02-27T05:32:38.265Z,100567.97
2023-02-27T05:35:55.458Z,100571.41
2023-02-27T05:39:10.924Z,100578.53
2023-02-27T05:42:27.205Z,100578.97
2023-02-27T05:45:42.351Z,100575.84
2023-02-27T05:48:57.859Z,100573.88
2023-02-27T05:52:14.454Z,100571.84
2023-02-27T05:55:30.794Z,100580.88
2023-02-27T05:58:47.334Z,100576.59
2023-02-27T06:02:02.067Z,100587.78
2023-02-27T06:05:28.763Z,100601.34
2023-02-27T06:08:53.047Z,100609.25
2023-02-27T06:12:10.494Z,100615.38
2023-02-27T06:15:26.175Z,100619.78
2023-02-27T06:19:05.103Z,100632.72
2023-02-27T06:22:42.497Z,100635.62
2023-02-27T06:26:05.879Z,100649.00
2023-02-27T06:29:21.476Z,100649.31
2023-02-27T06:32:43.327Z,100659.12
2023-02-27T06:35:59.133Z,100670.09
2023-02-27T06:39:38.045Z,100676.34
2023-02-27T06:43:02.173Z,100682.31
2023-02-27T06:46:18.857Z,100691.09
2023-02-27T06:50:05.447Z,100695.34
2023-02-27T06:57:16.302Z,100705.25
2023-02-27T07:00:37.551Z,100705.25
2023-02-27T07:03:53.536Z,100708.16
2023-02-27T07:07:35.454Z,100714.84
2023-02-27T07:11:03.936Z,100715.84
2023-02-27T07:14:57.217Z,100716.38
2023-02-27T07:18:13.234Z,100717.19
2023-02-27T07:21:48.726Z,100718.25
2023-02-27T07:25:05.537Z,100710.00
2023-02-27T07:29:00.415Z,100719.97
2023-02-27T07:32:26.692Z,100728.31
2023-02-27T07:35:40.956Z,100719.59
2023-02-27T07:39:04.978Z,100732.31
2023-02-27T07:42:45.504Z,100732.37
2023-02-27T07:46:09.231Z,100726.62
2023-02-27T07:49:33.570Z,100728.37
2023-02-27T07:52:49.168Z,100730.31
2023-02-27T07:56:11.122Z,100729.63
2023-02-27T07:59:56.028Z,100736.81
2023-02-27T08:03:13.453Z,100749.50
2023-02-27T08:07:01.695Z,100751.81
2023-02-27T08:10:20.594Z,100752.19
2023-02-27T08:14:39.831Z,100746.59
2023-02-27T08:18:16.205Z,100749.63
2023-02-27T08:21:44.460Z,100761.22
2023-02-27T08:25:24.187Z,100770.94
2023-02-27T08:28:48.745Z,100771.00
2023-02-27T08:32:11.687Z,100787.31
2023-02-27T08:35:44.648Z,100795.84
2023-02-27T08:39:18.548Z,100808.88
2023-02-27T08:42:36.354Z,100795.50
2023-02-27T08:46:10.737Z,100810.97
2023-02-27T08:49:25.935Z,100806.03
2023-02-27T08:53:07.782Z,100813.09
2023-02-27T08:56:23.835Z,100803.06
2023-02-27T08:59:42.281Z,100820.81
2023-02-27T09:03:07.503Z,100814.53
2023-02-27T09:07:00.251Z,100825.06
2023-02-27T09:10:26.670Z,100825.16
2023-02-27T09:13:49.987Z,100819.59
2023-02-27T09:17:20.718Z,100826.41
2023-02-27T09:20:54.534Z,100826.66
2023-02-27T09:24:19.775Z,100829.87
2023-02-27T09:31:31.362Z,100841.31
2023-02-27T09:35:20.540Z,100844.78
2023-02-27T09:38:41.937Z,100830.81
2023-02-27T09:42:13.321Z,100835.47
2023-02-27T09:45:49.189Z,100840.66
2023-02-27T09:53:01.634Z,100840.84
2023-02-27T09:56:28.064Z,100841.41
2023-02-27T10:01:03.362Z,100848.81
2023-02-27T10:08:37.423Z,100852.53
2023-02-27T10:11:59.108Z,100855.44
2023-02-27T10:15:29.860Z,100849.78
2023-02-27T10:19:05.747Z,100847.53
2023-02-27T10:22:36.220Z,100851.66
2023-02-27T10:26:04.396Z,100855.34
2023-02-27T10:30:17.359Z,100850.47
2023-02-27T10:33:40.688Z,100850.09
2023-02-27T10:36:55.761Z,100840.50
2023-02-27T10:40:16.281Z,100847.06
2023-02-27T10:43:55.618Z,100845.09
2023-02-27T10:47:16.950Z,100842.84
2023-02-27T10:50:50.780Z,100840.00
2023-02-27T10:54:32.839Z,100836.38
2023-02-27T10:57:51.969Z,100838.53
2023-02-27T11:01:45.717Z,100847.16
2023-02-27T11:05:01.587Z,100833.66
2023-02-27T11:08:31.865Z,100837.94
2023-02-27T11:12:35.947Z,100839.31
2023-02-27T11:16:35.324Z,100839.59
2023-02-27T11:20:02.182Z,100845.84
2023-02-27T11:23:24.858Z,100848.16
2023-02-27T11:26:50.621Z,100856.44
2023-02-27T11:30:46.351Z,100850.97
2023-02-27T11:34:41.596Z,100850.37
2023-02-27T11:38:10.663Z,100845.00
2023-02-27T11:46:22.816Z,100851.00
2023-02-27T11:49:36.311Z,100841.22
2023-02-27T11:53:22.488Z,100847.59
2023-02-27T11:56:48.472Z,100836.28
2023-02-27T12:00:43.069Z,100842.16
2023-02-27T12:07:44.921Z,100836.84
2023-02-27T12:11:33.577Z,100843.25
2023-02-27T12:22:42.676Z,100843.97
2023-02-27T12:26:31.095Z,100851.16
2023-02-27T12:29:59.255Z,100849.63
2023-02-27T12:33:36.803Z,100849.22
2023-02-27T12:37:01.769Z,100865.53
2023-02-27T12:40:21.955Z,100862.59
2023-02-27T12:43:45.141Z,100860.56
2023-02-27T12:47:25.044Z,100864.09
2023-02-27T12:50:49.868Z,100873.22
2023-02-27T12:54:35.684Z,100859.78
2023-02-27T12:58:43.864Z,100860.25
2023-02-27T13:02:15.117Z,100866.63
2023-02-27T13:06:25.642Z,100866.34
2023-02-27T13:13:36.619Z,100861.97
2023-02-27T13:17:03.313Z,100872.06
2023-02-27T13:28:01.994Z,100873.56
2023-02-27T13:31:29.448Z,100881.94
2023-02-27T13:34:56.912Z,100881.53
2023-02-27T13:38:44.358Z,100882.56
2023-02-27T13:42:28.688Z,100886.09
2023-02-27T13:45:59.707Z,100882.62
2023-02-27T13:49:34.523Z,100885.19
2023-02-27T13:53:12.954Z,100884.94
2023-02-27T13:56:53.300Z,100883.63
2023-02-27T14:00:23.040Z,100880.91
2023-02-27T14:04:07.827Z,100884.91
2023-02-27T14:07:42.275Z,100881.22
2023-02-27T14:11:08.539Z,100883.69
2023-02-27T14:18:56.523Z,100890.53
2023-02-27T14:22:49.780Z,100878.09
2023-02-27T14:26:21.246Z,100888.13
2023-02-27T14:29:41.506Z,100882.94
2023-02-27T14:33:04.556Z,100881.09
2023-02-27T14:36:27.997Z,100880.50
2023-02-27T14:39:43.989Z,100888.06
2023-02-27T14:43:04.960Z,100890.38
2023-02-27T14:46:25.603Z,100899.84
2023-02-27T14:50:05.833Z,100901.22
2023-02-27T14:53:31.296Z,100905.81
2023-02-27T14:56:55.516Z,100901.22
2023-02-27T15:00:36.757Z,100892.09
2023-02-27T15:03:53.371Z,100895.84
2023-02-27T15:07:17.907Z,100895.97
2023-02-27T15:10:33.482Z,100913.06
2023-02-27T15:13:48.497Z,100913.81
2023-02-27T15:17:02.965Z,100918.75
2023-02-27T15:20:31.181Z,100937.72
2023-02-27T15:23:46.852Z,100935.84
2023-02-27T15:27:02.650Z,100935.69
2023-02-27T15:30:21.833Z,100940.69
2023-02-27T15:33:36.069Z,100951.13
2023-02-27T15:36:52.915Z,100953.22
2023-02-27T15:40:10.400Z,100956.69
2023-02-27T15:43:24.625Z,100960.91
2023-02-27T15:46:38.966Z,100965.66
2023-02-27T15:49:55.598Z,100972.00
2023-02-27T15:53:12.433Z,100975.09
2023-02-27T15:56:29.646Z,100988.59
2023-02-27T15:59:44.159Z,100988.69
2023-02-27T16:02:58.899Z,100989.28
2023-02-27T16:06:13.726Z,100994.25
2023-02-27T16:09:30.506Z,100996.91
2023-02-27T16:12:46.708Z,101002.38
2023-02-27T16:16:01.828Z,101006.06
2023-02-27T16:19:17.147Z,101005.78
2023-02-27T16:22:31.789Z,101016.03
